createdAt,value
2023-03-12T07:32:37.099Z,3.57
2023-03-12T07:35:05.205Z,3.60
2023-03-12T07:37:31.770Z,3.67
2023-03-12T07:39:58.433Z,3.67
2023-03-12T07:42:25.396Z,3.71
2023-03-12T07:44:51.984Z,3.74
2023-03-12T07:47:23.950Z,3.90
2023-03-12T07:49:51.330Z,3.90
2023-03-12T07:52:20.188Z,3.97
2023-03-12T07:54:47.107Z,3.90
2023-03-12T07:57:14.257Z,3.99
2023-03-12T07:59:40.845Z,4.12
2023-03-12T08:02:10.411Z,4.14
2023-03-12T08:04:37.435Z,4.15
2023-03-12T08:07:09.309Z,4.16
2023-03-12T08:09:42.061Z,4.23
2023-03-12T08:12:10.869Z,4.26
2023-03-12T08:14:37.797Z,4.35
2023-03-12T08:17:05.073Z,4.48
2023-03-12T08:19:31.624Z,4.67
2023-03-12T08:21:58.965Z,4.79
2023-03-12T08:24:26.154Z,4.79
2023-03-12T08:26:53.661Z,4.95
2023-03-12T08:29:20.853Z,5.15
2023-03-12T08:32:03.700Z,5.17
2023-03-12T08:34:31.801Z,5.36
2023-03-12T08:36:59.099Z,5.36
2023-03-12T08:39:26.342Z,5.46
2023-03-12T08:41:55.762Z,5.50
2023-03-12T08:44:26.699Z,5.63
2023-03-12T08:46:53.628Z,5.63
2023-03-12T08:49:22.640Z,5.74
2023-03-12T08:51:51.955Z,5.77
2023-03-12T08:54:20.506Z,5.80
2023-03-12T08:56:52.383Z,5.81
2023-03-12T08:59:23.515Z,5.85
2023-03-12T09:01:50.566Z,6.00
2023-03-12T09:04:17.547Z,6.11
2023-03-12T09:06:44.247Z,6.20
2023-03-12T09:09:10.901Z,6.38
2023-03-12T09:11:39.855Z,6.56
2023-03-12T09:14:59.533Z,6.66
2023-03-12T09:16:54.119Z,6.85
2023-03-12T09:19:21.119Z,6.79
2023-03-12T09:21:47.769Z,6.82
2023-03-12T09:24:14.371Z,6.93
2023-03-12T09:26:40.986Z,7.10
2023-03-12T09:29:07.542Z,7.11
2023-03-12T09:31:34.721Z,7.35
2023-03-12T09:34:01.304Z,7.47
2023-03-12T09:36:27.955Z,7.65
2023-03-12T09:38:55.519Z,7.76
2023-03-12T09:41:28.873Z,7.92
2023-03-12T09:44:13.913Z,8.06
2023-03-12T09:46:46.463Z,8.24
2023-03-12T09:49:53.639Z,8.44
2023-03-12T09:52:35.334Z,8.65
2023-03-12T09:55:12.647Z,8.76
2023-03-12T09:57:39.149Z,8.89
2023-03-12T10:00:12.348Z,8.99
2023-03-12T10:03:04.831Z,9.03
2023-03-12T10:05:37.882Z,9.15
2023-03-12T10:08:31.155Z,9.46
2023-03-12T10:11:36.593Z,9.46
2023-03-12T10:14:24.083Z,9.58
2023-03-12T10:17:05.884Z,9.73
2023-03-12T10:20:23.620Z,9.82
2023-03-12T10:23:13.249Z,10.06
2023-03-12T10:25:59.423Z,10.42
2023-03-12T10:28:45.803Z,10.20
2023-03-12T10:31:59.480Z,10.32
2023-03-12T10:34:37.518Z,10.23
2023-03-12T10:37:34.039Z,10.10
2023-03-12T10:40:02.124Z,10.13
2023-03-12T10:42:30.142Z,10.06
2023-03-12T10:45:04.143Z,10.09
2023-03-12T10:47:36.172Z,10.01
2023-03-12T10:50:26.734Z,10.45
2023-03-12T10:53:13.622Z,10.61
2023-03-12T10:55:41.498Z,10.63
2023-03-12T10:58:22.661Z,10.45
2023-03-12T11:01:01.179Z,10.47
2023-03-12T11:03:28.279Z,10.64
2023-03-12T11:05:58.961Z,10.66
2023-03-12T11:08:31.335Z,10.73
2023-03-12T11:11:00.130Z,10.66
2023-03-12T11:13:32.954Z,10.63
2023-03-12T11:16:03.999Z,10.88
2023-03-12T11:18:36.529Z,10.77
2023-03-12T11:21:08.821Z,10.90
2023-03-12T11:23:48.337Z,11.11
2023-03-12T11:26:30.422Z,11.12
2023-03-12T11:29:04.472Z,11.21
2023-03-12T11:31:37.236Z,11.39
2023-03-12T11:34:07.762Z,11.12
2023-03-12T11:36:40.102Z,11.01
2023-03-12T11:39:25.411Z,11.28
2023-03-12T11:42:31.961Z,11.24
2023-03-12T11:45:24.837Z,11.10
2023-03-12T11:48:08.356Z,11.08
2023-03-12T11:50:34.973Z,11.26
2023-03-12T11:53:43.468Z,12.03
2023-03-12T11:56:30.440Z,12.37
2023-03-12T11:58:59.873Z,12.38
2023-03-12T12:01:26.381Z,12.62
2023-03-12T12:04:30.935Z,12.79
2023-03-12T12:07:35.952Z,14.25
2023-03-12T12:10:25.189Z,13.68
2023-03-12T12:12:57.376Z,13.28
2023-03-12T12:15:36.509Z,12.78
2023-03-12T12:18:21.957Z,12.40
2023-03-12T12:21:46.489Z,12.00
2023-03-12T12:24:33.525Z,12.13
2023-03-12T12:27:00.262Z,12.13
2023-03-12T12:29:43.907Z,12.13
2023-03-12T12:32:19.062Z,11.63
2023-03-12T12:34:58.430Z,11.58
2023-03-12T12:37:33.717Z,11.69
2023-03-12T12:40:12.382Z,11.62
2023-03-12T12:42:56.845Z,11.65
2023-03-12T12:45:24.902Z,11.83
2023-03-12T12:47:59.265Z,11.95
2023-03-12T12:50:32.116Z,12.03
2023-03-12T12:53:21.784Z,12.20
2023-03-12T12:56:07.439Z,12.51
2023-03-12T12:59:05.651Z,12.48
2023-03-12T13:01:35.708Z,12.48
2023-03-12T13:04:17.654Z,12.70
2023-03-12T13:07:02.736Z,12.55
2023-03-12T13:09:43.788Z,12.82
2023-03-12T13:12:29.548Z,12.76
2023-03-12T13:14:57.799Z,12.95
2023-03-12T13:17:35.741Z,12.68
2023-03-12T13:20:17.859Z,12.46
2023-03-12T13:23:12.246Z,12.48
2023-03-12T13:26:20.491Z,12.61
2023-03-12T13:28:56.761Z,13.30
2023-03-12T13:31:29.470Z,13.98
2023-03-12T13:34:09.012Z,14.98
2023-03-12T13:36:38.707Z,14.57
2023-03-12T13:39:18.860Z,14.67
2023-03-12T13:41:45.367Z,15.43
2023-03-12T13:44:23.814Z,16.18
2023-03-12T13:47:05.881Z,16.30
2023-03-12T13:49:52.680Z,16.75
2023-03-12T13:52:34.598Z,15.97
2023-03-12T13:55:06.169Z,16.25
2023-03-12T13:57:45.971Z,17.34
2023-03-12T14:00:25.074Z,17.45
2023-03-12T14:03:24.447Z,17.61
2023-03-12T14:05:58.550Z,16.45
2023-03-12T14:08:49.780Z,16.66
2023-03-12T14:11:28.769Z,16.17
2023-03-12T14:14:24.512Z,15.50
2023-03-12T14:16:54.115Z,15.91
2023-03-12T14:19:24.880Z,15.39
2023-03-12T14:21:52.839Z,14.84
2023-03-12T14:24:28.573Z,14.80
2023-03-12T14:26:56.959Z,15.23
2023-03-12T14:29:39.242Z,16.11
2023-03-12T14:32:14.001Z,15.84
2023-03-12T14:34:45.203Z,16.12
2023-03-12T14:37:23.802Z,15.16
2023-03-12T14:40:01.875Z,15.73
2023-03-12T14:42:31.891Z,14.09
2023-03-12T14:45:10.340Z,13.79
2023-03-12T14:47:55.261Z,13.69
2023-03-12T14:50:27.929Z,13.85
2023-03-12T14:52:56.102Z,13.78
2023-03-12T14:55:25.711Z,13.58
2023-03-12T14:58:17.109Z,14.23
2023-03-12T15:00:45.958Z,14.68
2023-03-12T15:03:16.446Z,14.48
2023-03-12T15:05:48.097Z,14.80
2023-03-12T15:08:15.341Z,14.36
2023-03-12T15:10:48.860Z,13.94
2023-03-12T15:13:17.396Z,13.58
2023-03-12T15:15:49.795Z,13.19
2023-03-12T15:18:28.830Z,13.11
2023-03-12T15:20:57.804Z,12.85
2023-03-12T15:23:25.954Z,12.97
2023-03-12T15:26:16.233Z,12.76
2023-03-12T15:28:43.499Z,12.48
2023-03-12T15:31:16.576Z,12.44
2023-03-12T15:33:44.717Z,12.37
2023-03-12T15:36:17.568Z,12.21
2023-03-12T15:39:05.579Z,12.32
2023-03-12T15:41:45.521Z,12.34
2023-03-12T15:44:24.180Z,12.27
2023-03-12T15:47:02.050Z,12.05
2023-03-12T15:49:32.497Z,11.93
2023-03-12T15:52:19.352Z,11.94
2023-03-12T15:55:02.660Z,11.94
2023-03-12T15:57:30.407Z,11.98
2023-03-12T16:00:12.356Z,11.84
2023-03-12T16:02:52.453Z,11.73
2023-03-12T16:05:21.368Z,11.76
2023-03-12T16:07:48.493Z,11.79
2023-03-12T16:10:17.931Z,11.73
2023-03-12T16:12:46.209Z,11.63
2023-03-12T16:15:15.610Z,11.55
2023-03-12T16:17:42.567Z,11.53
2023-03-12T16:20:14.721Z,11.47
2023-03-12T16:22:41.693Z,11.52
2023-03-12T16:25:11.705Z,11.46
2023-03-12T16:27:45.707Z,11.26
2023-03-12T16:30:16.767Z,11.31
2023-03-12T16:32:43.419Z,11.26
2023-03-12T16:35:13.630Z,11.15
2023-03-12T16:37:40.674Z,11.19
2023-03-12T16:40:08.139Z,11.19
2023-03-12T16:42:35.585Z,11.18
2023-03-12T16:45:02.826Z,11.03
2023-03-12T16:47:30.428Z,11.05
2023-03-12T16:49:57.800Z,11.00
2023-03-12T16:52:26.684Z,10.90
2023-03-12T16:54:53.296Z,10.80
2023-03-12T16:57:26.932Z,10.76
2023-03-12T16:59:54.186Z,10.76
2023-03-12T17:02:21.452Z,10.70
2023-03-12T17:04:49.494Z,10.73
2023-03-12T17:07:16.208Z,10.64
2023-03-12T17:09:42.760Z,10.68
2023-03-12T17:12:27.428Z,10.59
2023-03-12T17:14:54.243Z,10.59
2023-03-12T17:17:23.111Z,10.39
2023-03-12T17:19:51.995Z,10.36
2023-03-12T17:22:21.745Z,10.32
2023-03-12T17:24:48.329Z,10.29
2023-03-12T17:27:15.551Z,10.32
2023-03-12T17:29:42.266Z,10.29
2023-03-12T17:32:09.387Z,10.37
2023-03-12T17:34:35.970Z,10.40
2023-03-12T17:37:03.113Z,10.37
2023-03-12T17:39:29.722Z,10.35
2023-03-12T17:41:56.419Z,10.39
2023-03-12T17:44:23.026Z,10.30
2023-03-12T17:46:58.903Z,10.33
2023-03-12T17:49:26.402Z,10.39
2023-03-12T17:51:53.025Z,10.43
2023-03-12T17:54:19.558Z,10.45
2023-03-12T17:56:46.172Z,10.39
2023-03-12T17:59:12.682Z,10.42
2023-03-12T18:01:39.282Z,10.52
2023-03-12T18:04:05.943Z,10.36
2023-03-12T18:06:32.567Z,10.45
2023-03-12T18:08:59.112Z,10.33
2023-03-12T18:11:25.762Z,10.35
2023-03-12T18:13:52.408Z,10.32
2023-03-12T18:16:19.052Z,10.25
2023-03-12T18:18:46.470Z,10.37
2023-03-12T18:21:13.127Z,10.36
2023-03-12T18:23:39.783Z,10.35
2023-03-12T18:26:06.379Z,10.28
2023-03-12T18:28:36.125Z,10.23
2023-03-12T18:31:03.998Z,10.05
2023-03-12T18:33:37.199Z,10.15
2023-03-12T18:36:04.693Z,10.18
2023-03-12T18:38:32.746Z,10.18
2023-03-12T18:41:04.982Z,10.25
2023-03-12T18:43:35.033Z,10.26
2023-03-12T18:46:01.644Z,10.13
2023-03-12T18:48:28.544Z,10.09
2023-03-12T18:50:55.076Z,10.09
2023-03-12T18:53:22.045Z,10.18
2023-03-12T18:55:53.451Z,10.26
2023-03-12T18:58:20.189Z,10.25
2023-03-12T19:00:46.818Z,10.22
2023-03-12T19:03:13.663Z,10.23
2023-03-12T19:05:40.224Z,10.28
2023-03-12T19:08:06.776Z,10.28
2023-03-12T19:10:33.443Z,10.39
2023-03-12T19:13:00.016Z,10.33
2023-03-12T19:15:26.668Z,10.43
2023-03-12T19:17:54.345Z,10.47
2023-03-12T19:20:21.263Z,10.50
2023-03-12T19:22:47.837Z,10.49
2023-03-12T19:25:18.427Z,10.45
2023-03-12T19:27:45.016Z,10.53
2023-03-12T19:30:12.279Z,10.37
2023-03-12T19:32:43.828Z,10.50
2023-03-12T19:35:12.740Z,10.45
2023-03-12T19:37:39.976Z,10.36
2023-03-12T19:40:07.151Z,10.29
2023-03-12T19:42:33.725Z,10.35
2023-03-12T19:45:00.410Z,10.36
2023-03-12T19:47:26.977Z,10.29
2023-03-12T19:49:53.676Z,10.35
2023-03-12T19:52:20.487Z,10.29
2023-03-12T19:54:54.592Z,10.22
2023-03-12T19:57:29.675Z,10.18
2023-03-12T19:59:56.158Z,10.10
2023-03-12T20:02:22.893Z,10.06
2023-03-12T20:04:49.627Z,10.16
2023-03-12T20:07:17.774Z,10.10
2023-03-12T20:09:44.329Z,10.08
2023-03-12T20:12:10.980Z,10.05
2023-03-12T20:14:37.964Z,10.10
2023-03-12T20:17:04.501Z,10.15
2023-03-12T20:19:31.126Z,10.12
2023-03-12T20:21:57.715Z,10.03
2023-03-12T20:24:24.276Z,10.09
2023-03-12T20:26:50.895Z,10.08
2023-03-12T20:29:17.442Z,10.05
2023-03-12T20:31:44.129Z,9.95
2023-03-12T20:34:10.784Z,10.02
2023-03-12T20:36:37.350Z,10.01
2023-03-12T20:39:04.690Z,9.95
2023-03-12T20:41:31.361Z,9.85
2023-03-12T20:43:57.933Z,9.82
2023-03-12T20:46:24.682Z,9.73
2023-03-12T20:48:51.478Z,9.65
2023-03-12T20:51:20.964Z,9.81
2023-03-12T20:53:47.530Z,9.75
2023-03-12T20:56:14.129Z,9.67
2023-03-12T20:58:40.692Z,9.61
2023-03-12T21:01:07.715Z,9.61
2023-03-12T21:03:34.411Z,9.55
2023-03-12T21:06:02.459Z,9.62
2023-03-12T21:08:29.525Z,9.65
2023-03-12T21:10:56.247Z,9.55
2023-03-12T21:13:23.484Z,9.71
2023-03-12T21:15:50.612Z,9.67
2023-03-12T21:18:17.935Z,9.70
2023-03-12T21:20:44.957Z,9.57
2023-03-12T21:23:11.679Z,9.58
2023-03-12T21:25:39.974Z,9.58
2023-03-12T21:28:08.274Z,9.57
2023-03-12T21:30:34.888Z,9.50
2023-03-12T21:33:02.225Z,9.36
2023-03-12T21:35:29.140Z,9.39
2023-03-12T21:37:59.027Z,9.41
2023-03-12T21:40:26.387Z,9.36
2023-03-12T21:42:52.939Z,9.40
2023-03-12T21:45:19.500Z,9.50
2023-03-12T21:47:46.025Z,9.51
2023-03-12T21:50:12.623Z,9.48
2023-03-12T21:52:42.987Z,9.58
2023-03-12T21:55:10.459Z,9.62
2023-03-12T21:57:37.023Z,9.64
2023-03-12T22:00:04.563Z,9.62
2023-03-12T22:02:31.748Z,9.70
2023-03-12T22:05:01.452Z,9.68
2023-03-12T22:07:31.038Z,9.55
2023-03-12T22:09:57.713Z,9.60
2023-03-12T22:12:24.266Z,9.55
2023-03-12T22:14:50.840Z,9.50
2023-03-12T22:17:17.507Z,9.44
2023-03-12T22:19:44.371Z,9.43
2023-03-12T22:22:11.145Z,9.47
2023-03-12T22:24:37.735Z,9.47
2023-03-12T22:27:07.314Z,9.44
2023-03-12T22:29:34.769Z,9.39
2023-03-12T22:32:01.944Z,9.43
2023-03-12T22:34:29.640Z,9.43
2023-03-12T22:36:56.227Z,9.37
2023-03-12T22:39:22.797Z,9.37
2023-03-12T22:41:53.646Z,9.33
2023-03-12T22:44:20.437Z,9.36
2023-03-12T22:46:47.417Z,9.40
2023-03-12T22:49:15.196Z,9.36
2023-03-12T22:51:41.907Z,9.40
2023-03-12T22:54:09.403Z,9.43
2023-03-12T22:56:36.071Z,9.46
